sensor_id;sensor_type;location;lat;lon;timestamp;pressure;altitude;pressure_sealevel;temperature;humidity
49104;BME280;34915;52.926;11.116;2022-09-23T00:01:52;102037.09;;;8.12;100.00
49104;BME280;34915;52.926;11.116;2022-09-23T00:04:18;102038.03;;;8.10;100.00
49104;BME280;34915;52.926;11.116;2022-09-23T00:06:44;102033.06;;;8.02;100.00
49104;BME280;34915;52.926;11.116;2022-09-23T00:09:10;102030.44;;;8.02;100.00
49104;BME280;34915;52.926;11.116;2022-09-23T00:11:35;102035.00;;;7.99;100.00
49104;BME280;34915;52.926;11.116;2022-09-23T00:14:02;102025.66;;;7.90;100.00
49104;BME280;34915;52.926;11.116;2022-09-23T00:16:30;102008.47;;;7.81;100.00
49104;BME280;34915;52.926;11.116;2022-09-23T00:18:59;102021.22;;;7.91;100.00
49104;BME280;34915;52.926;11.116;2022-09-23T00:21:25;101998.94;;;7.77;100.00
49104;BME280;34915;52.926;11.116;2022-09-23T00:23:51;102011.88;;;7.82;100.00
49104;BME280;34915;52.926;11.116;2022-09-23T00:26:19;102018.91;;;7.83;100.00
49104;BME280;34915;52.926;11.116;2022-09-23T00:28:45;102005.28;;;7.73;100.00
49104;BME280;34915;52.926;11.116;2022-09-23T00:31:14;102014.09;;;7.72;100.00
49104;BME280;34915;52.926;11.116;2022-09-23T00:33:40;102019.63;;;7.66;100.00
49104;BME280;34915;52.926;11.116;2022-09-23T00:36:09;102013.88;;;7.55;100.00
49104;BME280;34915;52.926;11.116;2022-09-23T00:38:40;102018.50;;;7.50;100.00
49104;BME280;34915;52.926;11.116;2022-09-23T00:41:06;102004.72;;;7.42;100.00
49104;BME280;34915;52.926;11.116;2022-09-23T00:44:01;102010.75;;;7.45;100.00
49104;BME280;34915;52.926;11.116;2022-09-23T00:49:22;101991.44;;;7.22;100.00
49104;BME280;34915;52.926;11.116;2022-09-23T00:51:54;102005.41;;;7.24;100.00
49104;BME280;34915;52.926;11.116;2022-09-23T00:54:23;102002.34;;;7.13;100.00
49104;BME280;34915;52.926;11.116;2022-09-23T00:56:50;102000.50;;;7.15;100.00
49104;BME280;34915;52.926;11.116;2022-09-23T00:59:17;101995.22;;;7.15;100.00
49104;BME280;34915;52.926;11.116;2022-09-23T01:01:43;102001.34;;;7.16;100.00
49104;BME280;34915;52.926;11.116;2022-09-23T01:04:08;101998.75;;;7.14;100.00
49104;BME280;34915;52.926;11.116;2022-09-23T01:06:34;101991.69;;;7.16;100.00
49104;BME280;34915;52.926;11.116;2022-09-23T01:09:00;101991.56;;;7.19;100.00
49104;BME280;34915;52.926;11.116;2022-09-23T01:25:32;101976.84;;;7.14;100.00
49104;BME280;34915;52.926;11.116;2022-09-23T01:33:57;101967.59;;;7.02;100.00
49104;BME280;34915;52.926;11.116;2022-09-23T01:36:52;101965.03;;;7.01;100.00
49104;BME280;34915;52.926;11.116;2022-09-23T01:39:32;101958.78;;;7.03;100.00
49104;BME280;34915;52.926;11.116;2022-09-23T01:44:41;101962.09;;;7.08;100.00
49104;BME280;34915;52.926;11.116;2022-09-23T01:47:29;101956.22;;;7.02;100.00
49104;BME280;34915;52.926;11.116;2022-09-23T01:52:30;101950.53;;;6.89;100.00
49104;BME280;34915;52.926;11.116;2022-09-23T01:55:06;101954.94;;;6.89;100.00
49104;BME280;34915;52.926;11.116;2022-09-23T01:57:48;101947.09;;;6.87;100.00
49104;BME280;34915;52.926;11.116;2022-09-23T02:00:19;101934.84;;;6.86;100.00
49104;BME280;34915;52.926;11.116;2022-09-23T02:02:55;101948.84;;;6.88;100.00
49104;BME280;34915;52.926;11.116;2022-09-23T02:05:30;101941.72;;;6.90;100.00
49104;BME280;34915;52.926;11.116;2022-09-23T02:08:05;101943.69;;;6.86;100.00
49104;BME280;34915;52.926;11.116;2022-09-23T02:11:01;101947.34;;;6.82;100.00
49104;BME280;34915;52.926;11.116;2022-09-23T02:18:57;101940.56;;;6.75;100.00
49104;BME280;34915;52.926;11.116;2022-09-23T02:21:31;101935.41;;;6.72;100.00
49104;BME280;34915;52.926;11.116;2022-09-23T02:24:19;101935.53;;;6.69;100.00
49104;BME280;34915;52.926;11.116;2022-09-23T02:34:33;101914.56;;;6.66;100.00
49104;BME280;34915;52.926;11.116;2022-09-23T02:39:55;101912.94;;;6.62;100.00
49104;BME280;34915;52.926;11.116;2022-09-23T02:42:28;101904.25;;;6.60;100.00
49104;BME280;34915;52.926;11.116;2022-09-23T02:44:55;101904.25;;;6.60;100.00
49104;BME280;34915;52.926;11.116;2022-09-23T02:47:27;101900.13;;;6.53;100.00
49104;BME280;34915;52.926;11.116;2022-09-23T02:49:55;101904.25;;;6.60;100.00
49104;BME280;34915;52.926;11.116;2022-09-23T02:52:23;101899.97;;;6.57;100.00
49104;BME280;34915;52.926;11.116;2022-09-23T02:54:50;101899.13;;;6.57;100.00
49104;BME280;34915;52.926;11.116;2022-09-23T02:57:16;101875.16;;;6.40;100.00
49104;BME280;34915;52.926;11.116;2022-09-23T02:59:41;101897.50;;;6.53;100.00
49104;BME280;34915;52.926;11.116;2022-09-23T03:02:41;101897.28;;;6.59;100.00
49104;BME280;34915;52.926;11.116;2022-09-23T03:05:20;101888.59;;;6.57;100.00
49104;BME280;34915;52.926;11.116;2022-09-23T03:08:00;101893.72;;;6.60;100.00
49104;BME280;34915;52.926;11.116;2022-09-23T03:10:37;101892.13;;;6.56;100.00
49104;BME280;34915;52.926;11.116;2022-09-23T03:13:23;101892.13;;;6.56;100.00
49104;BME280;34915;52.926;11.116;2022-09-23T03:18:45;101869.22;;;6.58;100.00
49104;BME280;34915;52.926;11.116;2022-09-23T03:24:01;101875.31;;;6.60;100.00
49104;BME280;34915;52.926;11.116;2022-09-23T03:26:33;101869.22;;;6.58;100.00
49104;BME280;34915;52.926;11.116;2022-09-23T03:29:03;101868.31;;;6.59;100.00
49104;BME280;34915;52.926;11.116;2022-09-23T03:31:31;101870.72;;;6.65;100.00
49104;BME280;34915;52.926;11.116;2022-09-23T03:33:59;101849.66;;;6.65;100.00
49104;BME280;34915;52.926;11.116;2022-09-23T03:36:42;101859.72;;;6.77;100.00
49104;BME280;34915;52.926;11.116;2022-09-23T03:39:36;101861.34;;;6.81;100.00
49104;BME280;34915;52.926;11.116;2022-09-23T03:42:11;101856.06;;;6.81;100.00
49104;BME280;34915;52.926;11.116;2022-09-23T03:44:45;101849.97;;;6.80;100.00
49104;BME280;34915;52.926;11.116;2022-09-23T03:47:12;101855.94;;;6.84;100.00
49104;BME280;34915;52.926;11.116;2022-09-23T03:49:40;101852.41;;;6.85;100.00
49104;BME280;34915;52.926;11.116;2022-09-23T03:52:07;101852.28;;;6.87;100.00
49104;BME280;34915;52.926;11.116;2022-09-23T03:54:32;101838.22;;;6.88;100.00
49104;BME280;34915;52.926;11.116;2022-09-23T03:56:59;101842.50;;;6.91;100.00
49104;BME280;34915;52.926;11.116;2022-09-23T03:59:26;101852.19;;;6.90;100.00
49104;BME280;34915;52.926;11.116;2022-09-23T04:01:52;101850.22;;;6.95;100.00
49104;BME280;34915;52.926;11.116;2022-09-23T04:04:18;101848.41;;;6.97;100.00
49104;BME280;34915;52.926;11.116;2022-09-23T04:06:44;101838.59;;;7.01;100.00
49104;BME280;34915;52.926;11.116;2022-09-23T04:09:10;101837.75;;;7.00;100.00
49104;BME280;34915;52.926;11.116;2022-09-23T04:11:36;101841.88;;;7.07;100.00
49104;BME280;34915;52.926;11.116;2022-09-23T04:14:02;101842.53;;;7.12;100.00
49104;BME280;34915;52.926;11.116;2022-09-23T04:16:28;101838.97;;;7.13;100.00
49104;BME280;34915;52.926;11.116;2022-09-23T04:18:54;101831.88;;;7.15;100.00
49104;BME280;34915;52.926;11.116;2022-09-23T04:21:20;101836.22;;;7.16;100.00
49104;BME280;34915;52.926;11.116;2022-09-23T04:23:46;101832.59;;;7.19;100.00
49104;BME280;34915;52.926;11.116;2022-09-23T04:26:12;101836.03;;;7.21;100.00
49104;BME280;34915;52.926;11.116;2022-09-23T04:28:38;101816.06;;;7.15;100.00
49104;BME280;34915;52.926;11.116;2022-09-23T04:31:04;101825.19;;;7.28;100.00
49104;BME280;34915;52.926;11.116;2022-09-23T04:33:30;101823.41;;;7.29;100.00
49104;BME280;34915;52.926;11.116;2022-09-23T04:35:56;101813.84;;;7.26;100.00
49104;BME280;34915;52.926;11.116;2022-09-23T04:38:21;101808.75;;;7.22;100.00
49104;BME280;34915;52.926;11.116;2022-09-23T04:40:47;101819.59;;;7.14;100.00
49104;BME280;34915;52.926;11.116;2022-09-23T04:43:14;101812.50;;;7.16;100.00
49104;BME280;34915;52.926;11.116;2022-09-23T04:45:44;101813.47;;;7.14;100.00
49104;BME280;34915;52.926;11.116;2022-09-23T04:48:10;101821.19;;;7.18;100.00
49104;BME280;34915;52.926;11.116;2022-09-23T04:50:37;101813.97;;;7.23;100.00
49104;BME280;34915;52.926;11.116;2022-09-23T04:53:04;101808.56;;;7.26;100.00
49104;BME280;34915;52.926;11.116;2022-09-23T04:55:30;101817.28;;;7.28;100.00
49104;BME280;34915;52.926;11.116;2022-09-23T04:57:56;101811.88;;;7.31;100.00
49104;BME280;34915;52.926;11.116;2022-09-23T05:00:22;101813.63;;;7.32;100.00
49104;BME280;34915;52.926;11.116;2022-09-23T05:02:49;101815.31;;;7.33;100.00
49104;BME280;34915;52.926;11.116;2022-09-23T05:05:16;101812.66;;;7.33;100.00
49104;BME280;34915;52.926;11.116;2022-09-23T05:07:49;101813.63;;;7.32;100.00
49104;BME280;34915;52.926;11.116;2022-09-23T05:10:15;101817.94;;;7.33;100.00
49104;BME280;34915;52.926;11.116;2022-09-23T05:12:41;101813.50;;;7.35;100.00
49104;BME280;34915;52.926;11.116;2022-09-23T05:15:06;101813.50;;;7.35;100.00
49104;BME280;34915;52.926;11.116;2022-09-23T05:17:32;101807.16;;;7.39;100.00
49104;BME280;34915;52.926;11.116;2022-09-23T05:19:58;101809.66;;;7.42;100.00
49104;BME280;34915;52.926;11.116;2022-09-23T05:22:24;101805.25;;;7.42;100.00
49104;BME280;34915;52.926;11.116;2022-09-23T05:24:53;101810.34;;;7.47;100.00
49104;BME280;34915;52.926;11.116;2022-09-23T05:27:20;101812.59;;;7.56;100.00
49104;BME280;34915;52.926;11.116;2022-09-23T05:29:46;101799.75;;;7.48;100.00
49104;BME280;34915;52.926;11.116;2022-09-23T05:32:12;101807.19;;;7.59;100.00
49104;BME280;34915;52.926;11.116;2022-09-23T05:34:39;101806.22;;;7.61;100.00
49104;BME280;34915;52.926;11.116;2022-09-23T05:37:05;101804.50;;;7.60;100.00
49104;BME280;34915;52.926;11.116;2022-09-23T05:39:31;101805.22;;;7.64;100.00
49104;BME280;34915;52.926;11.116;2022-09-23T05:41:56;101805.09;;;7.67;100.00
49104;BME280;34915;52.926;11.116;2022-09-23T05:44:24;101801.53;;;7.68;100.00
49104;BME280;34915;52.926;11.116;2022-09-23T05:46:50;101792.72;;;7.69;100.00
49104;BME280;34915;52.926;11.116;2022-09-23T05:49:15;101795.09;;;7.75;100.00
49104;BME280;34915;52.926;11.116;2022-09-23T05:51:41;101795.59;;;7.82;100.00
49104;BME280;34915;52.926;11.116;2022-09-23T05:54:06;101803.13;;;7.91;100.00
49104;BME280;34915;52.926;11.116;2022-09-23T05:56:33;101802.19;;;7.92;100.00
49104;BME280;34915;52.926;11.116;2022-09-23T05:58:59;101798.50;;;7.96;100.00
49104;BME280;34915;52.926;11.116;2022-09-23T06:01:28;101799.97;;;8.03;100.00
49104;BME280;34915;52.926;11.116;2022-09-23T06:03:57;101797.97;;;8.08;100.00
49104;BME280;34915;52.926;11.116;2022-09-23T06:06:29;101801.28;;;8.13;100.00
49104;BME280;34915;52.926;11.116;2022-09-23T06:08:55;101795.91;;;8.16;100.00
49104;BME280;34915;52.926;11.116;2022-09-23T06:11:23;101785.44;;;8.13;100.00
49104;BME280;34915;52.926;11.116;2022-09-23T06:13:53;101804.31;;;8.24;100.00
49104;BME280;34915;52.926;11.116;2022-09-23T06:16:18;101797.03;;;8.29;100.00
49104;BME280;34915;52.926;11.116;2022-09-23T06:18:44;101786.34;;;8.32;100.00
49104;BME280;34915;52.926;11.116;2022-09-23T06:21:14;101790.56;;;8.36;100.00
49104;BME280;34915;52.926;11.116;2022-09-23T06:23:40;101784.25;;;8.40;100.00
49104;BME280;34915;52.926;11.116;2022-09-23T06:26:08;101796.09;;;8.50;100.00
49104;BME280;34915;52.926;11.116;2022-09-23T06:28:39;101797.41;;;8.60;100.00
49104;BME280;34915;52.926;11.116;2022-09-23T06:31:07;101797.25;;;8.63;100.00
49104;BME280;34915;52.926;11.116;2022-09-23T06:33:34;101802.41;;;8.66;100.00
49104;BME280;34915;52.926;11.116;2022-09-23T06:36:02;101798.66;;;8.70;100.00
49104;BME280;34915;52.926;11.116;2022-09-23T06:38:28;101796.53;;;8.78;100.00
49104;BME280;34915;52.926;11.116;2022-09-23T06:40:56;101788.25;;;8.85;100.00
49104;BME280;34915;52.926;11.116;2022-09-23T06:43:23;101788.66;;;8.94;100.00
49104;BME280;34915;52.926;11.116;2022-09-23T06:45:56;101791.97;;;8.99;100.00
49104;BME280;34915;52.926;11.116;2022-09-23T06:48:22;101793.22;;;9.09;100.00
49104;BME280;34915;52.926;11.116;2022-09-23T06:50:49;101784.19;;;9.13;100.00
49104;BME280;34915;52.926;11.116;2022-09-23T06:53:16;101787.19;;;9.24;100.00
49104;BME280;34915;52.926;11.116;2022-09-23T06:55:42;101773.03;;;9.25;100.00
49104;BME280;34915;52.926;11.116;2022-09-23T06:58:08;101783.94;;;9.36;100.00
49104;BME280;34915;52.926;11.116;2022-09-23T07:00:35;101780.84;;;9.45;100.00
49104;BME280;34915;52.926;11.116;2022-09-23T07:03:00;101784.13;;;9.50;100.00
49104;BME280;34915;52.926;11.116;2022-09-23T07:05:26;101777.66;;;9.55;100.00
49104;BME280;34915;52.926;11.116;2022-09-23T07:07:52;101779.56;;;9.70;100.00
49104;BME280;34915;52.926;11.116;2022-09-23T07:10:20;101776.03;;;9.70;100.00
49104;BME280;34915;52.926;11.116;2022-09-23T07:12:45;101780.25;;;9.74;100.00
49104;BME280;34915;52.926;11.116;2022-09-23T07:15:11;101781.81;;;9.94;100.00
49104;BME280;34915;52.926;11.116;2022-09-23T07:17:39;101769.63;;;10.24;100.00
49104;BME280;34915;52.926;11.116;2022-09-23T07:20:05;101769.75;;;10.38;100.00
49104;BME280;34915;52.926;11.116;2022-09-23T07:22:31;101781.34;;;10.68;99.38
49104;BME280;34915;52.926;11.116;2022-09-23T07:24:56;101774.25;;;10.83;97.61
49104;BME280;34915;52.926;11.116;2022-09-23T07:27:23;101775.38;;;10.80;96.27
49104;BME280;34915;52.926;11.116;2022-09-23T07:29:50;101780.56;;;10.96;96.07
49104;BME280;34915;52.926;11.116;2022-09-23T07:32:17;101784.59;;;11.03;97.04
49104;BME280;34915;52.926;11.116;2022-09-23T07:34:43;101787.34;;;11.17;94.74
49104;BME280;34915;52.926;11.116;2022-09-23T07:37:09;101786.63;;;11.29;93.75
49104;BME280;34915;52.926;11.116;2022-09-23T07:39:35;101779.25;;;11.34;94.02
49104;BME280;34915;52.926;11.116;2022-09-23T07:42:02;101783.56;;;11.52;93.35
49104;BME280;34915;52.926;11.116;2022-09-23T07:44:30;101773.72;;;11.68;90.66
49104;BME280;34915;52.926;11.116;2022-09-23T07:46:57;101775.69;;;11.80;91.83
49104;BME280;34915;52.926;11.116;2022-09-23T07:49:23;101770.28;;;11.95;90.81
49104;BME280;34915;52.926;11.116;2022-09-23T07:51:49;101774.50;;;12.27;85.74
49104;BME280;34915;52.926;11.116;2022-09-23T07:54:15;101773.53;;;12.14;86.66
49104;BME280;34915;52.926;11.116;2022-09-23T07:56:42;101773.28;;;12.32;87.01
49104;BME280;34915;52.926;11.116;2022-09-23T07:59:11;101783.16;;;12.44;85.37
49104;BME280;34915;52.926;11.116;2022-09-23T08:01:44;101771.50;;;12.46;86.64
49104;BME280;34915;52.926;11.116;2022-09-23T08:04:16;101778.97;;;12.40;86.44
49104;BME280;34915;52.926;11.116;2022-09-23T08:06:44;101776.03;;;12.58;85.76
49104;BME280;34915;52.926;11.116;2022-09-23T08:09:10;101758.28;;;12.45;86.23
49104;BME280;34915;52.926;11.116;2022-09-23T08:11:36;101765.84;;;12.65;82.83
49104;BME280;34915;52.926;11.116;2022-09-23T08:14:13;101770.38;;;12.77;83.82
49104;BME280;34915;52.926;11.116;2022-09-23T08:16:40;101763.59;;;12.73;85.26
49104;BME280;34915;52.926;11.116;2022-09-23T08:19:06;101768.69;;;12.76;86.39
49104;BME280;34915;52.926;11.116;2022-09-23T08:21:32;101775.91;;;12.74;85.88
49104;BME280;34915;52.926;11.116;2022-09-23T08:23:58;101767.38;;;12.69;88.04
49104;BME280;34915;52.926;11.116;2022-09-23T08:26:24;101767.19;;;12.72;86.36
49104;BME280;34915;52.926;11.116;2022-09-23T08:28:50;101770.41;;;13.04;82.68
49104;BME280;34915;52.926;11.116;2022-09-23T08:31:21;101766.97;;;13.02;81.93
49104;BME280;34915;52.926;11.116;2022-09-23T08:33:47;101759.34;;;13.10;82.03
49104;BME280;34915;52.926;11.116;2022-09-23T08:36:12;101763.69;;;13.37;80.63
49104;BME280;34915;52.926;11.116;2022-09-23T08:38:38;101747.16;;;13.46;78.44
49104;BME280;34915;52.926;11.116;2022-09-23T08:41:25;101759.28;;;13.50;80.33
49104;BME280;34915;52.926;11.116;2022-09-23T08:44:00;101756.31;;;13.55;79.06
49104;BME280;34915;52.926;11.116;2022-09-23T08:46:31;101757.19;;;13.68;76.24
49104;BME280;34915;52.926;11.116;2022-09-23T08:48:59;101758.69;;;13.84;76.04
49104;BME280;34915;52.926;11.116;2022-09-23T08:51:32;101752.22;;;13.76;76.90
49104;BME280;34915;52.926;11.116;2022-09-23T08:54:00;101746.25;;;13.84;78.88
49104;BME280;34915;52.926;11.116;2022-09-23T08:56:27;101747.66;;;13.90;77.16
49104;BME280;34915;52.926;11.116;2022-09-23T08:59:05;101744.88;;;13.91;77.51
49104;BME280;34915;52.926;11.116;2022-09-23T09:12:46;101744.72;;;14.19;80.58
49104;BME280;34915;52.926;11.116;2022-09-23T09:15:13;101747.47;;;14.30;75.95
49104;BME280;34915;52.926;11.116;2022-09-23T09:22:56;101735.75;;;14.32;76.91
49104;BME280;34915;52.926;11.116;2022-09-23T09:25:43;101726.09;;;14.67;73.37
49104;BME280;34915;52.926;11.116;2022-09-23T09:28:22;101720.56;;;14.58;76.27
49104;BME280;34915;52.926;11.116;2022-09-23T09:30:56;101724.91;;;14.94;73.75
49104;BME280;34915;52.926;11.116;2022-09-23T09:33:31;101720.56;;;14.93;75.04
49104;BME280;34915;52.926;11.116;2022-09-23T09:39:04;101718.72;;;15.06;73.18
49104;BME280;34915;52.926;11.116;2022-09-23T09:41:31;101704.50;;;15.18;71.29
49104;BME280;34915;52.926;11.116;2022-09-23T09:43:58;101716.44;;;15.36;72.64
49104;BME280;34915;52.926;11.116;2022-09-23T09:49:28;101703.91;;;15.13;74.47
49104;BME280;34915;52.926;11.116;2022-09-23T09:54:40;101708.03;;;15.53;70.29
49104;BME280;34915;52.926;11.116;2022-09-23T09:57:28;101704.84;;;15.48;71.23
49104;BME280;34915;52.926;11.116;2022-09-23T09:59:56;101695.88;;;15.60;70.56
49104;BME280;34915;52.926;11.116;2022-09-23T10:02:35;101700.50;;;15.58;74.28
49104;BME280;34915;52.926;11.116;2022-09-23T10:05:04;101675.97;;;15.53;73.68
49104;BME280;34915;52.926;11.116;2022-09-23T10:07:32;101685.50;;;15.68;72.91
49104;BME280;34915;52.926;11.116;2022-09-23T10:10:14;101686.47;;;15.77;73.01
49104;BME280;34915;52.926;11.116;2022-09-23T10:12:43;101685.78;;;15.86;74.25
49104;BME280;34915;52.926;11.116;2022-09-23T10:15:41;101682.16;;;16.09;74.78
49104;BME280;34915;52.926;11.116;2022-09-23T10:18:18;101679.50;;;16.42;68.82
49104;BME280;34915;52.926;11.116;2022-09-23T10:20:44;101687.03;;;16.15;68.88
49104;BME280;34915;52.926;11.116;2022-09-23T10:23:17;101695.56;;;16.31;69.88
49104;BME280;34915;52.926;11.116;2022-09-23T10:25:56;101681.34;;;16.30;68.65
49104;BME280;34915;52.926;11.116;2022-09-23T10:28:47;101678.28;;;16.35;67.44
49104;BME280;34915;52.926;11.116;2022-09-23T10:31:32;101683.16;;;16.41;66.97
49104;BME280;34915;52.926;11.116;2022-09-23T10:34:00;101677.56;;;16.44;67.86
49104;BME280;34915;52.926;11.116;2022-09-23T10:36:28;101664.69;;;16.49;68.14
49104;BME280;34915;52.926;11.116;2022-09-23T10:38:59;101673.16;;;16.54;68.20
49104;BME280;34915;52.926;11.116;2022-09-23T10:41:57;101667.56;;;16.57;71.15
49104;BME280;34915;52.926;11.116;2022-09-23T10:45:05;101663.94;;;16.58;71.42
49104;BME280;34915;52.926;11.116;2022-09-23T11:12:41;101630.59;;;17.35;65.15
49104;BME280;34915;52.926;11.116;2022-09-23T11:20:56;101619.22;;;17.22;67.89
49104;BME280;34915;52.926;11.116;2022-09-23T11:32:00;101606.63;;;17.54;60.85
49104;BME280;34915;52.926;11.116;2022-09-23T11:37:23;101602.34;;;17.31;63.66
49104;BME280;34915;52.926;11.116;2022-09-23T11:40:03;101593.03;;;17.26;64.34
49104;BME280;34915;52.926;11.116;2022-09-23T11:42:38;101587.28;;;17.19;65.35
49104;BME280;34915;52.926;11.116;2022-09-23T11:45:15;101588.50;;;17.26;65.22
49104;BME280;34915;52.926;11.116;2022-09-23T11:47:53;101581.84;;;17.41;64.82
49104;BME280;34915;52.926;11.116;2022-09-23T11:50:36;101578.84;;;17.55;64.02
49104;BME280;34915;52.926;11.116;2022-09-23T11:53:22;101564.00;;;17.80;66.82
49104;BME280;34915;52.926;11.116;2022-09-23T11:56:01;101556.22;;;17.77;62.13
49104;BME280;34915;52.926;11.116;2022-09-23T11:58:45;101566.06;;;17.97;63.01
49104;BME280;34915;52.926;11.116;2022-09-23T12:01:31;101563.84;;;18.12;60.12
49104;BME280;34915;52.926;11.116;2022-09-23T12:04:08;101563.03;;;18.11;61.04
49104;BME280;34915;52.926;11.116;2022-09-23T12:06:42;101558.28;;;18.24;58.48
49104;BME280;34915;52.926;11.116;2022-09-23T12:09:38;101559.34;;;18.12;57.95
49104;BME280;34915;52.926;11.116;2022-09-23T12:17:46;101540.91;;;18.28;58.52
49104;BME280;34915;52.926;11.116;2022-09-23T12:23:43;101545.44;;;18.37;56.91
49104;BME280;34915;52.926;11.116;2022-09-23T12:25:49;101541.09;;;18.36;54.24
49104;BME280;34915;52.926;11.116;2022-09-23T12:28:38;101540.78;;;18.20;59.40
49104;BME280;34915;52.926;11.116;2022-09-23T12:31:12;101530.47;;;18.25;57.53
49104;BME280;34915;52.926;11.116;2022-09-23T12:33:38;101527.81;;;18.34;55.28
49104;BME280;34915;52.926;11.116;2022-09-23T12:36:08;101536.28;;;18.30;59.17
49104;BME280;34915;52.926;11.116;2022-09-23T12:38:49;101522.31;;;18.36;58.09
49104;BME280;34915;52.926;11.116;2022-09-23T12:41:27;101520.75;;;18.43;58.03
49104;BME280;34915;52.926;11.116;2022-09-23T12:44:37;101527.13;;;18.42;58.18
49104;BME280;34915;52.926;11.116;2022-09-23T12:49:40;101537.16;;;18.49;56.43
49104;BME280;34915;52.926;11.116;2022-09-23T12:54:39;101512.38;;;18.27;54.91
49104;BME280;34915;52.926;11.116;2022-09-23T12:57:09;101524.13;;;18.26;58.84
49104;BME280;34915;52.926;11.116;2022-09-23T13:04:55;101518.41;;;18.10;59.05
49104;BME280;34915;52.926;11.116;2022-09-23T13:07:47;101510.66;;;17.77;57.92
49104;BME280;34915;52.926;11.116;2022-09-23T13:10:20;101514.06;;;17.79;57.72
49104;BME280;34915;52.926;11.116;2022-09-23T13:12:48;101506.66;;;17.63;60.59
49104;BME280;34915;52.926;11.116;2022-09-23T13:15:30;101512.22;;;17.71;61.36
49104;BME280;34915;52.926;11.116;2022-09-23T13:20:46;101500.19;;;17.75;59.65
49104;BME280;34915;52.926;11.116;2022-09-23T13:23:23;101502.75;;;17.76;60.64
49104;BME280;34915;52.926;11.116;2022-09-23T13:25:51;101494.00;;;17.65;63.54
49104;BME280;34915;52.926;11.116;2022-09-23T13:30:50;101485.47;;;17.60;61.11
49104;BME280;34915;52.926;11.116;2022-09-23T13:33:33;101489.72;;;17.62;62.38
49104;BME280;34915;52.926;11.116;2022-09-23T13:36:02;101492.00;;;17.67;63.49
49104;BME280;34915;52.926;11.116;2022-09-23T13:38:34;101484.94;;;17.66;62.33
49104;BME280;34915;52.926;11.116;2022-09-23T13:41:02;101473.59;;;17.53;63.45
49104;BME280;34915;52.926;11.116;2022-09-23T13:43:46;101474.34;;;17.55;63.55
49104;BME280;34915;52.926;11.116;2022-09-23T13:46:16;101471.91;;;17.52;62.20
49104;BME280;34915;52.926;11.116;2022-09-23T13:48:44;101468.06;;;17.45;63.37
49104;BME280;34915;52.926;11.116;2022-09-23T13:51:15;101467.44;;;17.62;61.16
49104;BME280;34915;52.926;11.116;2022-09-23T13:53:50;101458.03;;;17.37;64.30
49104;BME280;34915;52.926;11.116;2022-09-23T13:56:16;101463.53;;;17.36;63.79
49104;BME280;34915;52.926;11.116;2022-09-23T13:58:42;101460.84;;;17.36;66.35
49104;BME280;34915;52.926;11.116;2022-09-23T14:01:09;101464.22;;;17.38;65.01
49104;BME280;34915;52.926;11.116;2022-09-23T14:03:44;101461.81;;;17.35;65.81
49104;BME280;34915;52.926;11.116;2022-09-23T14:06:12;101459.84;;;17.37;66.04
49104;BME280;34915;52.926;11.116;2022-09-23T14:08:48;101447.88;;;17.41;68.11
49104;BME280;34915;52.926;11.116;2022-09-23T14:11:20;101454.31;;;17.29;68.64
49104;BME280;34915;52.926;11.116;2022-09-23T14:13:49;101452.34;;;17.31;67.72
49104;BME280;34915;52.926;11.116;2022-09-23T14:16:20;101455.44;;;17.27;64.60
49104;BME280;34915;52.926;11.116;2022-09-23T14:18:48;101444.19;;;17.32;66.69
49104;BME280;34915;52.926;11.116;2022-09-23T14:23:53;101432.97;;;17.48;64.50
49104;BME280;34915;52.926;11.116;2022-09-23T14:26:19;101444.22;;;17.42;63.75
49104;BME280;34915;52.926;11.116;2022-09-23T14:28:46;101441.09;;;17.37;64.14
49104;BME280;34915;52.926;11.116;2022-09-23T14:31:12;101440.22;;;17.27;65.60
49104;BME280;34915;52.926;11.116;2022-09-23T14:33:39;101440.50;;;17.24;63.01
49104;BME280;34915;52.926;11.116;2022-09-23T14:36:12;101433.44;;;17.23;62.62
49104;BME280;34915;52.926;11.116;2022-09-23T14:41:27;101428.91;;;17.24;66.83
49104;BME280;34915;52.926;11.116;2022-09-23T14:43:59;101439.28;;;17.17;65.73
49104;BME280;34915;52.926;11.116;2022-09-23T14:46:28;101436.16;;;17.12;64.10
49104;BME280;34915;52.926;11.116;2022-09-23T14:49:07;101428.84;;;17.14;65.47
49104;BME280;34915;52.926;11.116;2022-09-23T14:52:04;101435.59;;;17.18;62.79
49104;BME280;34915;52.926;11.116;2022-09-23T14:54:49;101434.06;;;17.16;65.41
49104;BME280;34915;52.926;11.116;2022-09-23T14:57:25;101430.38;;;17.37;64.79
49104;BME280;34915;52.926;11.116;2022-09-23T14:59:58;101422.44;;;17.26;62.26
49104;BME280;34915;52.926;11.116;2022-09-23T15:02:38;101420.19;;;17.31;65.09
49104;BME280;34915;52.926;11.116;2022-09-23T15:07:35;101418.69;;;17.18;66.89
49104;BME280;34915;52.926;11.116;2022-09-23T15:10:01;101416.69;;;17.10;67.51
49104;BME280;34915;52.926;11.116;2022-09-23T15:12:28;101420.88;;;17.03;66.40
49104;BME280;34915;52.926;11.116;2022-09-23T15:14:54;101410.97;;;16.94;67.67
49104;BME280;34915;52.926;11.116;2022-09-23T15:17:34;101416.59;;;16.91;68.55
49104;BME280;34915;52.926;11.116;2022-09-23T15:20:21;101415.16;;;16.87;69.75
49104;BME280;34915;52.926;11.116;2022-09-23T15:22:50;101422.03;;;16.80;71.38
49104;BME280;34915;52.926;11.116;2022-09-23T15:25:24;101406.38;;;16.76;69.75
49104;BME280;34915;52.926;11.116;2022-09-23T15:30:21;101406.81;;;16.61;72.74
49104;BME280;34915;52.926;11.116;2022-09-23T15:32:47;101405.91;;;16.51;72.01